WetterOnline ( https://www.wetteronline.de )

Wetter aktuell Flintbek

Aktuelles Wetter: Kiel/Holtenau (27m)

6-stündlich | Neueste Meldungen
Ortszeit Temperatur Wetter
Mo, 01.06. 8:00 14.9° C wolkig
Mo, 01.06. 2:00 11.4° C leicht bewölkt
So, 31.05. 20:00 16.6° C wolkenlos
So, 31.05. 14:00 18.6° C wolkig
So, 31.05. 8:00 15.0° C bedeckt
So, 31.05. 2:00 12.1° C bewölkt
Sa, 30.05. 20:00 15.3° C bewölkt
Sa, 30.05. 14:00 18.3° C wolkenlos
Ortszeit Temperatur Wetter
Mo, 01.06. 8:30 15.1° C wolkig
Mo, 01.06. 8:20 15.1° C wolkig
Mo, 01.06. 8:10 15.2° C wolkig
Mo, 01.06. 8:00 14.9° C wolkig
Mo, 01.06. 7:50 14.9° C wolkig
Mo, 01.06. 7:40 14.7° C leicht bewölkt
Mo, 01.06. 7:30 14.4° C wolkenlos
Mo, 01.06. 7:00 14.2° C fast wolkenlos
Mo, 01.06. 6:30 13.4° C wolkenlos
Mo, 01.06. 6:00 12.5° C wolkenlos
Mo, 01.06. 5:30 12.0° C wolkenlos
Ortszeit Relative Feuchte Sichtweite
Mo, 01.06. 8:00 66% 65 km
Mo, 01.06. 2:00 73% >70 km
So, 31.05. 20:00 50% >70 km
So, 31.05. 14:00 49% >70 km
So, 31.05. 8:00 63% >70 km
So, 31.05. 2:00 77% >70 km
Sa, 30.05. 20:00 68% 55 km
Sa, 30.05. 14:00 52% 60 km
Ortszeit Relative Feuchte Sichtweite
Mo, 01.06. 8:30 65% >70 km
Mo, 01.06. 8:20 65% -
Mo, 01.06. 8:10 66% -
Mo, 01.06. 8:00 66% 65 km
Mo, 01.06. 7:50 66% -
Mo, 01.06. 7:40 66% -
Mo, 01.06. 7:30 68% 60 km
Mo, 01.06. 7:00 71% >70 km
Mo, 01.06. 6:30 73% >70 km
Mo, 01.06. 6:00 78% >70 km
Mo, 01.06. 5:30 79% >70 km
Ortszeit Niederschlagsmenge Niederschlagsart
Mo, 01.06. 8:00 0.0 l/m2 in 12 Std. -
Mo, 01.06. 2:00 0.0 l/m2 in 6 Std. -
So, 31.05. 20:00 0.0 l/m2 in 12 Std. -
So, 31.05. 14:00 0.0 l/m2 in 6 Std. -
So, 31.05. 8:00 0.0 l/m2 in 12 Std. -
So, 31.05. 2:00 0.0 l/m2 in 6 Std. -
Sa, 30.05. 20:00 0.0 l/m2 in 12 Std. -
Sa, 30.05. 14:00 0.0 l/m2 in 6 Std. -
Ortszeit Niederschlagsmenge Niederschlagsart
Mo, 01.06. 8:30 0.0 l/m2 in 1 Std. -
Mo, 01.06. 8:20 keine Meldung -
Mo, 01.06. 8:10 keine Meldung -
Mo, 01.06. 8:00 0.0 l/m2 in 1 Std. -
Mo, 01.06. 7:50 keine Meldung -
Mo, 01.06. 7:40 keine Meldung -
Mo, 01.06. 7:30 0.0 l/m2 in 1 Std. -
Mo, 01.06. 7:00 0.0 l/m2 in 1 Std. -
Mo, 01.06. 6:30 0.0 l/m2 in 1 Std. -
Mo, 01.06. 6:00 0.0 l/m2 in 1 Std. -
Mo, 01.06. 5:30 0.0 l/m2 in 1 Std. -
Ortszeit Stärke Spitze Richtung
km/h Bft. km/h Grad Sektor
Mo, 01.06. 8:00 22 4 32 60° NO
Mo, 01.06. 2:00 9 2 31 60° NO
So, 31.05. 20:00 24 4 61 90° O
So, 31.05. 14:00 28 4 44 60° NO
So, 31.05. 8:00 22 4 29 30° NO
So, 31.05. 2:00 9 2 15 70° O
Sa, 30.05. 20:00 13 3 28 80° O
Sa, 30.05. 14:00 14 3 25 40° NO
Ortszeit Stärke Spitze Richtung
km/h Bft. km/h Grad Sektor
Mo, 01.06. 8:30 26 4 35 50° NO
Mo, 01.06. 8:20 26 4 - 50° NO
Mo, 01.06. 8:10 25 4 - 50° NO
Mo, 01.06. 8:00 22 4 32 60° NO
Mo, 01.06. 7:50 22 4 - 60° NO
Mo, 01.06. 7:40 22 4 - 60° NO
Mo, 01.06. 7:30 20 4 30 50° NO
Mo, 01.06. 7:00 14 3 25 50° NO
Mo, 01.06. 6:30 17 3 22 50° NO
Mo, 01.06. 6:00 13 3 22 50° NO
Mo, 01.06. 5:30 15 3 22 60° NO
Ortszeit Untergrenze Bedeckung Gattung
total tief tief mittel hoch
Mo, 01.06. 8:00 10500 m 7/8 0/8 - - -
Mo, 01.06. 2:00 10500 m 3/8 0/8 - - -
So, 31.05. 20:00 - 0/8 0/8 - - -
So, 31.05. 14:00 6000 m 6/8 6/8 - - -
So, 31.05. 8:00 5100 m 8/8 8/8 - - -
So, 31.05. 2:00 1500 m 7/8 7/8 - - -
Sa, 30.05. 20:00 2100 m 7/8 7/8 - - -
Sa, 30.05. 14:00 - 0/8 0/8 - - -
Ortszeit Bedeckungsgrad in Achtel und Wolkenuntergrenze
Mo, 01.06. 8:30 7(10500m)
Mo, 01.06. 8:20 7(10500m)
Mo, 01.06. 8:10 7(10500m)
Mo, 01.06. 8:00 7(10500m)
Mo, 01.06. 7:50 7(10500m)
Mo, 01.06. 7:40 5(10500m)
Mo, 01.06. 7:30 2(10500m)
Mo, 01.06. 7:00 1(10500m)
Mo, 01.06. 6:30 keine Wolken
Mo, 01.06. 6:00 keine Wolken
Mo, 01.06. 5:30 keine Wolken
Ortszeit Luftdruck NN (hPa) Tendenz (hPa in 3 Std.)
Mo, 01.06. 8:00 1028 + 0,4
Mo, 01.06. 2:00 1028 + 0,4
So, 31.05. 20:00 1026 - 0,1
So, 31.05. 14:00 1026 - 0,2
So, 31.05. 8:00 1026 - 0,2
So, 31.05. 2:00 1027 + 0,5
Sa, 30.05. 20:00 1026 - 0,1
Sa, 30.05. 14:00 1027 - 1,1
Ortszeit Luftdruck NN (hPa) Tendenz (hPa in 3 Std.)
Mo, 01.06. 8:30 1028 + 0,5
Mo, 01.06. 8:20 1028 keine Meldung
Mo, 01.06. 8:10 1028 keine Meldung
Mo, 01.06. 8:00 1028 + 0,4
Mo, 01.06. 7:50 1028 keine Meldung
Mo, 01.06. 7:40 1028 keine Meldung
Mo, 01.06. 7:30 1027 + 0,2
Mo, 01.06. 7:00 1027 - 0,1
Mo, 01.06. 6:30 1027 - 0,2
Mo, 01.06. 6:00 1027 - 0,2
Mo, 01.06. 5:30 1027 - 0,3
Ortszeit Schneehöhe (cm)
Mo, 01.06. 8:00 -
Mo, 01.06. 2:00 -
So, 31.05. 20:00 -
So, 31.05. 14:00 -
So, 31.05. 8:00 -
So, 31.05. 2:00 -
Sa, 30.05. 20:00 -
Sa, 30.05. 14:00 -
Ortszeit Schneehöhe (cm)
Mo, 01.06. 8:30 -
Mo, 01.06. 8:20 -
Mo, 01.06. 8:10 -
Mo, 01.06. 8:00 -
Mo, 01.06. 7:50 -
Mo, 01.06. 7:40 -
Mo, 01.06. 7:30 -
Mo, 01.06. 7:00 -
Mo, 01.06. 6:30 -
Mo, 01.06. 6:00 -
Mo, 01.06. 5:30 -
Link zu dieser Seite / Seite empfehlen

Das Wetter in ...